sensor_id;sensor_type;location;lat;lon;timestamp;P1;durP1;ratioP1;P2;durP2;ratioP2
60610;SDS011;46439;51.164;13.572;2023-01-10T00:00:52;2.80;;;1.70;;
60610;SDS011;46439;51.164;13.572;2023-01-10T00:03:20;3.40;;;1.70;;
60610;SDS011;46439;51.164;13.572;2023-01-10T00:05:48;2.50;;;2.00;;
60610;SDS011;46439;51.164;13.572;2023-01-10T00:08:17;3.10;;;2.20;;
60610;SDS011;46439;51.164;13.572;2023-01-10T00:10:45;3.20;;;1.80;;
60610;SDS011;46439;51.164;13.572;2023-01-10T00:13:15;2.00;;;1.40;;
60610;SDS011;46439;51.164;13.572;2023-01-10T00:15:51;2.20;;;1.40;;
60610;SDS011;46439;51.164;13.572;2023-01-10T00:18:21;2.20;;;1.40;;
60610;SDS011;46439;51.164;13.572;2023-01-10T00:20:50;1.50;;;1.40;;
60610;SDS011;46439;51.164;13.572;2023-01-10T00:23:19;3.10;;;1.60;;
60610;SDS011;46439;51.164;13.572;2023-01-10T00:25:48;2.40;;;1.40;;
60610;SDS011;46439;51.164;13.572;2023-01-10T00:28:17;2.50;;;1.40;;
60610;SDS011;46439;51.164;13.572;2023-01-10T00:30:47;2.70;;;1.50;;
60610;SDS011;46439;51.164;13.572;2023-01-10T00:33:20;1.90;;;1.50;;
60610;SDS011;46439;51.164;13.572;2023-01-10T00:35:49;2.60;;;1.60;;
60610;SDS011;46439;51.164;13.572;2023-01-10T00:38:37;3.90;;;1.50;;
60610;SDS011;46439;51.164;13.572;2023-01-10T00:41:06;4.20;;;1.50;;
60610;SDS011;46439;51.164;13.572;2023-01-10T00:43:54;2.20;;;1.50;;
60610;SDS011;46439;51.164;13.572;2023-01-10T00:46:23;2.20;;;1.50;;
60610;SDS011;46439;51.164;13.572;2023-01-10T00:48:52;2.80;;;1.40;;
60610;SDS011;46439;51.164;13.572;2023-01-10T00:51:23;2.50;;;1.30;;
60610;SDS011;46439;51.164;13.572;2023-01-10T00:53:51;1.40;;;1.30;;
60610;SDS011;46439;51.164;13.572;2023-01-10T00:56:20;3.30;;;1.60;;
60610;SDS011;46439;51.164;13.572;2023-01-10T00:58:48;2.10;;;1.60;;
60610;SDS011;46439;51.164;13.572;2023-01-10T01:01:17;3.10;;;1.50;;
60610;SDS011;46439;51.164;13.572;2023-01-10T01:03:45;2.50;;;1.60;;
60610;SDS011;46439;51.164;13.572;2023-01-10T01:06:13;2.30;;;1.40;;
60610;SDS011;46439;51.164;13.572;2023-01-10T01:08:42;1.90;;;1.50;;
60610;SDS011;46439;51.164;13.572;2023-01-10T01:11:11;2.40;;;1.60;;
60610;SDS011;46439;51.164;13.572;2023-01-10T01:13:39;2.90;;;1.50;;
60610;SDS011;46439;51.164;13.572;2023-01-10T01:16:08;1.80;;;1.40;;
60610;SDS011;46439;51.164;13.572;2023-01-10T01:18:36;3.90;;;1.70;;
60610;SDS011;46439;51.164;13.572;2023-01-10T01:21:05;3.00;;;1.50;;
60610;SDS011;46439;51.164;13.572;2023-01-10T01:23:34;2.10;;;1.50;;
60610;SDS011;46439;51.164;13.572;2023-01-10T01:26:03;3.00;;;1.50;;
60610;SDS011;46439;51.164;13.572;2023-01-10T01:28:32;2.80;;;1.50;;
60610;SDS011;46439;51.164;13.572;2023-01-10T01:31:06;2.90;;;1.50;;
60610;SDS011;46439;51.164;13.572;2023-01-10T01:33:36;4.10;;;1.80;;
60610;SDS011;46439;51.164;13.572;2023-01-10T01:36:08;2.20;;;1.60;;
60610;SDS011;46439;51.164;13.572;2023-01-10T01:38:38;4.50;;;1.60;;
60610;SDS011;46439;51.164;13.572;2023-01-10T01:41:07;1.80;;;1.50;;
60610;SDS011;46439;51.164;13.572;2023-01-10T01:44:01;2.80;;;1.50;;
60610;SDS011;46439;51.164;13.572;2023-01-10T01:46:32;3.40;;;1.60;;
60610;SDS011;46439;51.164;13.572;2023-01-10T01:49:04;4.20;;;1.70;;
60610;SDS011;46439;51.164;13.572;2023-01-10T01:51:38;6.80;;;1.60;;
60610;SDS011;46439;51.164;13.572;2023-01-10T01:54:11;2.00;;;1.50;;
60610;SDS011;46439;51.164;13.572;2023-01-10T01:56:41;1.50;;;1.30;;
60610;SDS011;46439;51.164;13.572;2023-01-10T01:59:14;3.00;;;1.90;;
60610;SDS011;46439;51.164;13.572;2023-01-10T02:01:48;3.90;;;1.80;;
60610;SDS011;46439;51.164;13.572;2023-01-10T02:04:20;2.20;;;1.50;;
60610;SDS011;46439;51.164;13.572;2023-01-10T02:06:52;3.10;;;1.60;;
60610;SDS011;46439;51.164;13.572;2023-01-10T02:09:24;3.10;;;1.50;;
60610;SDS011;46439;51.164;13.572;2023-01-10T02:11:58;3.30;;;1.80;;
60610;SDS011;46439;51.164;13.572;2023-01-10T02:14:27;3.10;;;1.70;;
60610;SDS011;46439;51.164;13.572;2023-01-10T02:16:56;2.40;;;1.50;;
60610;SDS011;46439;51.164;13.572;2023-01-10T02:19:28;3.00;;;1.80;;
60610;SDS011;46439;51.164;13.572;2023-01-10T02:22:23;2.90;;;1.50;;
60610;SDS011;46439;51.164;13.572;2023-01-10T02:25:13;2.60;;;2.10;;
60610;SDS011;46439;51.164;13.572;2023-01-10T02:28:11;4.00;;;2.30;;
60610;SDS011;46439;51.164;13.572;2023-01-10T02:31:00;2.70;;;1.90;;
60610;SDS011;46439;51.164;13.572;2023-01-10T02:33:45;3.30;;;1.90;;
60610;SDS011;46439;51.164;13.572;2023-01-10T02:36:27;4.00;;;2.10;;
60610;SDS011;46439;51.164;13.572;2023-01-10T02:39:06;3.30;;;2.00;;
60610;SDS011;46439;51.164;13.572;2023-01-10T02:41:44;3.70;;;2.30;;
60610;SDS011;46439;51.164;13.572;2023-01-10T02:44:18;4.40;;;2.20;;
60610;SDS011;46439;51.164;13.572;2023-01-10T02:46:50;4.00;;;2.10;;
60610;SDS011;46439;51.164;13.572;2023-01-10T02:49:18;4.10;;;1.80;;
60610;SDS011;46439;51.164;13.572;2023-01-10T02:51:47;5.20;;;2.30;;
60610;SDS011;46439;51.164;13.572;2023-01-10T02:54:16;3.40;;;1.90;;
60610;SDS011;46439;51.164;13.572;2023-01-10T02:56:50;4.40;;;2.30;;
60610;SDS011;46439;51.164;13.572;2023-01-10T02:59:54;3.80;;;2.40;;
60610;SDS011;46439;51.164;13.572;2023-01-10T03:02:35;2.40;;;1.90;;
60610;SDS011;46439;51.164;13.572;2023-01-10T03:05:24;4.10;;;2.00;;
60610;SDS011;46439;51.164;13.572;2023-01-10T03:08:03;4.60;;;2.30;;
60610;SDS011;46439;51.164;13.572;2023-01-10T03:10:45;5.20;;;2.20;;
60610;SDS011;46439;51.164;13.572;2023-01-10T03:13:19;3.70;;;2.50;;
60610;SDS011;46439;51.164;13.572;2023-01-10T03:15:52;4.50;;;2.30;;
60610;SDS011;46439;51.164;13.572;2023-01-10T03:18:23;4.40;;;2.10;;
60610;SDS011;46439;51.164;13.572;2023-01-10T03:20:57;4.10;;;2.30;;
60610;SDS011;46439;51.164;13.572;2023-01-10T03:23:29;4.50;;;2.40;;
60610;SDS011;46439;51.164;13.572;2023-01-10T03:26:00;3.20;;;2.10;;
60610;SDS011;46439;51.164;13.572;2023-01-10T03:28:31;5.90;;;2.30;;
60610;SDS011;46439;51.164;13.572;2023-01-10T03:31:07;3.10;;;2.20;;
60610;SDS011;46439;51.164;13.572;2023-01-10T03:33:39;4.60;;;2.50;;
60610;SDS011;46439;51.164;13.572;2023-01-10T03:36:10;7.60;;;3.10;;
60610;SDS011;46439;51.164;13.572;2023-01-10T03:38:49;4.40;;;2.60;;
60610;SDS011;46439;51.164;13.572;2023-01-10T03:41:23;3.70;;;2.50;;
60610;SDS011;46439;51.164;13.572;2023-01-10T03:46:50;5.50;;;2.60;;
60610;SDS011;46439;51.164;13.572;2023-01-10T03:50:12;6.30;;;2.80;;
60610;SDS011;46439;51.164;13.572;2023-01-10T03:53:03;4.80;;;2.60;;
60610;SDS011;46439;51.164;13.572;2023-01-10T03:55:56;4.90;;;2.60;;
60610;SDS011;46439;51.164;13.572;2023-01-10T03:58:43;4.50;;;2.80;;
60610;SDS011;46439;51.164;13.572;2023-01-10T04:02:13;4.30;;;2.60;;
60610;SDS011;46439;51.164;13.572;2023-01-10T04:05:37;5.20;;;2.90;;
60610;SDS011;46439;51.164;13.572;2023-01-10T04:08:50;6.60;;;2.80;;
60610;SDS011;46439;51.164;13.572;2023-01-10T04:12:02;4.10;;;2.50;;
60610;SDS011;46439;51.164;13.572;2023-01-10T04:15:42;3.80;;;2.50;;
60610;SDS011;46439;51.164;13.572;2023-01-10T04:18:38;3.30;;;2.30;;
60610;SDS011;46439;51.164;13.572;2023-01-10T04:21:32;4.80;;;2.60;;
60610;SDS011;46439;51.164;13.572;2023-01-10T04:24:35;4.20;;;2.70;;
60610;SDS011;46439;51.164;13.572;2023-01-10T04:27:05;3.60;;;2.30;;
60610;SDS011;46439;51.164;13.572;2023-01-10T04:32:44;4.60;;;3.00;;
60610;SDS011;46439;51.164;13.572;2023-01-10T04:35:41;5.00;;;2.90;;
60610;SDS011;46439;51.164;13.572;2023-01-10T04:38:42;5.10;;;2.50;;
60610;SDS011;46439;51.164;13.572;2023-01-10T04:41:12;5.10;;;3.20;;
60610;SDS011;46439;51.164;13.572;2023-01-10T04:43:41;3.90;;;2.70;;
60610;SDS011;46439;51.164;13.572;2023-01-10T04:46:14;6.20;;;2.70;;
60610;SDS011;46439;51.164;13.572;2023-01-10T04:48:52;5.40;;;2.70;;
60610;SDS011;46439;51.164;13.572;2023-01-10T04:54:28;5.00;;;2.90;;
60610;SDS011;46439;51.164;13.572;2023-01-10T04:56:57;4.30;;;2.80;;
60610;SDS011;46439;51.164;13.572;2023-01-10T04:59:39;6.00;;;3.20;;
60610;SDS011;46439;51.164;13.572;2023-01-10T05:02:58;6.30;;;3.10;;
60610;SDS011;46439;51.164;13.572;2023-01-10T05:05:58;6.70;;;3.00;;
60610;SDS011;46439;51.164;13.572;2023-01-10T05:09:11;5.90;;;3.20;;
60610;SDS011;46439;51.164;13.572;2023-01-10T05:11:41;4.90;;;3.00;;
60610;SDS011;46439;51.164;13.572;2023-01-10T05:29:16;5.60;;;3.30;;
60610;SDS011;46439;51.164;13.572;2023-01-10T05:32:13;4.90;;;3.40;;
60610;SDS011;46439;51.164;13.572;2023-01-10T05:34:53;6.70;;;3.60;;
60610;SDS011;46439;51.164;13.572;2023-01-10T05:37:48;7.10;;;3.30;;
60610;SDS011;46439;51.164;13.572;2023-01-10T05:40:28;6.60;;;3.50;;
60610;SDS011;46439;51.164;13.572;2023-01-10T05:43:28;6.70;;;3.00;;
60610;SDS011;46439;51.164;13.572;2023-01-10T05:46:02;6.90;;;3.40;;
60610;SDS011;46439;51.164;13.572;2023-01-10T05:48:51;5.40;;;3.40;;
60610;SDS011;46439;51.164;13.572;2023-01-10T05:51:21;6.00;;;3.70;;
60610;SDS011;46439;51.164;13.572;2023-01-10T05:54:08;7.70;;;3.50;;
60610;SDS011;46439;51.164;13.572;2023-01-10T05:57:09;4.50;;;3.40;;
60610;SDS011;46439;51.164;13.572;2023-01-10T06:00:13;5.20;;;3.10;;
60610;SDS011;46439;51.164;13.572;2023-01-10T06:06:44;6.30;;;4.00;;
60610;SDS011;46439;51.164;13.572;2023-01-10T06:09:21;6.60;;;3.80;;
60610;SDS011;46439;51.164;13.572;2023-01-10T06:12:01;5.50;;;3.80;;
60610;SDS011;46439;51.164;13.572;2023-01-10T06:14:31;8.30;;;4.20;;
60610;SDS011;46439;51.164;13.572;2023-01-10T06:17:30;5.40;;;3.50;;
60610;SDS011;46439;51.164;13.572;2023-01-10T06:20:14;7.40;;;4.10;;
60610;SDS011;46439;51.164;13.572;2023-01-10T06:22:55;11.50;;;7.30;;
60610;SDS011;46439;51.164;13.572;2023-01-10T06:25:35;5.90;;;4.00;;
60610;SDS011;46439;51.164;13.572;2023-01-10T06:28:08;10.30;;;8.20;;
60610;SDS011;46439;51.164;13.572;2023-01-10T06:30:39;7.90;;;5.20;;
60610;SDS011;46439;51.164;13.572;2023-01-10T06:33:12;6.70;;;4.80;;
60610;SDS011;46439;51.164;13.572;2023-01-10T06:36:06;7.80;;;4.30;;
60610;SDS011;46439;51.164;13.572;2023-01-10T06:38:46;5.50;;;3.60;;
60610;SDS011;46439;51.164;13.572;2023-01-10T06:41:46;6.60;;;3.40;;
60610;SDS011;46439;51.164;13.572;2023-01-10T06:44:38;6.10;;;3.50;;
60610;SDS011;46439;51.164;13.572;2023-01-10T06:52:25;5.50;;;3.20;;
60610;SDS011;46439;51.164;13.572;2023-01-10T06:55:53;7.10;;;3.50;;
60610;SDS011;46439;51.164;13.572;2023-01-10T07:02:52;5.60;;;3.10;;
60610;SDS011;46439;51.164;13.572;2023-01-10T07:05:22;5.30;;;3.60;;
60610;SDS011;46439;51.164;13.572;2023-01-10T07:07:51;7.20;;;3.80;;
60610;SDS011;46439;51.164;13.572;2023-01-10T07:10:20;5.80;;;3.10;;
60610;SDS011;46439;51.164;13.572;2023-01-10T07:12:48;7.00;;;3.90;;
60610;SDS011;46439;51.164;13.572;2023-01-10T07:15:17;7.00;;;3.80;;
60610;SDS011;46439;51.164;13.572;2023-01-10T07:17:45;7.70;;;4.20;;
60610;SDS011;46439;51.164;13.572;2023-01-10T07:20:14;6.80;;;4.30;;
60610;SDS011;46439;51.164;13.572;2023-01-10T07:22:43;4.70;;;3.70;;
60610;SDS011;46439;51.164;13.572;2023-01-10T07:25:18;6.20;;;3.90;;
60610;SDS011;46439;51.164;13.572;2023-01-10T07:27:46;7.00;;;3.70;;
60610;SDS011;46439;51.164;13.572;2023-01-10T07:30:15;6.60;;;4.20;;
60610;SDS011;46439;51.164;13.572;2023-01-10T07:32:44;7.90;;;4.60;;
60610;SDS011;46439;51.164;13.572;2023-01-10T07:35:18;10.00;;;5.70;;
60610;SDS011;46439;51.164;13.572;2023-01-10T07:37:46;10.40;;;5.60;;
60610;SDS011;46439;51.164;13.572;2023-01-10T07:40:15;9.30;;;4.80;;
60610;SDS011;46439;51.164;13.572;2023-01-10T07:42:44;10.40;;;5.90;;
60610;SDS011;46439;51.164;13.572;2023-01-10T07:45:12;11.70;;;5.70;;
60610;SDS011;46439;51.164;13.572;2023-01-10T07:47:41;9.60;;;5.40;;
60610;SDS011;46439;51.164;13.572;2023-01-10T07:50:10;10.80;;;5.20;;
60610;SDS011;46439;51.164;13.572;2023-01-10T07:52:38;11.90;;;4.60;;
60610;SDS011;46439;51.164;13.572;2023-01-10T07:55:07;6.80;;;4.80;;
60610;SDS011;46439;51.164;13.572;2023-01-10T07:57:36;6.40;;;3.90;;
60610;SDS011;46439;51.164;13.572;2023-01-10T08:00:06;4.60;;;3.70;;
60610;SDS011;46439;51.164;13.572;2023-01-10T08:02:36;5.30;;;3.60;;
60610;SDS011;46439;51.164;13.572;2023-01-10T08:05:05;5.20;;;3.30;;
60610;SDS011;46439;51.164;13.572;2023-01-10T08:07:34;5.60;;;3.40;;
60610;SDS011;46439;51.164;13.572;2023-01-10T08:10:03;7.00;;;4.40;;
60610;SDS011;46439;51.164;13.572;2023-01-10T08:12:33;12.20;;;4.90;;
60610;SDS011;46439;51.164;13.572;2023-01-10T08:15:01;6.30;;;3.90;;
60610;SDS011;46439;51.164;13.572;2023-01-10T08:17:32;6.50;;;3.90;;
60610;SDS011;46439;51.164;13.572;2023-01-10T08:20:01;6.40;;;4.10;;
60610;SDS011;46439;51.164;13.572;2023-01-10T08:22:30;14.80;;;6.20;;
60610;SDS011;46439;51.164;13.572;2023-01-10T08:24:58;11.00;;;5.50;;
60610;SDS011;46439;51.164;13.572;2023-01-10T08:27:27;7.50;;;4.50;;
60610;SDS011;46439;51.164;13.572;2023-01-10T08:29:55;6.80;;;3.90;;
60610;SDS011;46439;51.164;13.572;2023-01-10T08:32:24;5.10;;;3.50;;
60610;SDS011;46439;51.164;13.572;2023-01-10T08:34:52;6.50;;;4.10;;
60610;SDS011;46439;51.164;13.572;2023-01-10T08:37:21;7.80;;;3.60;;
60610;SDS011;46439;51.164;13.572;2023-01-10T08:39:49;5.70;;;4.20;;
60610;SDS011;46439;51.164;13.572;2023-01-10T08:42:17;7.80;;;4.20;;
60610;SDS011;46439;51.164;13.572;2023-01-10T08:44:46;8.00;;;4.10;;
60610;SDS011;46439;51.164;13.572;2023-01-10T08:47:14;10.20;;;5.10;;
60610;SDS011;46439;51.164;13.572;2023-01-10T08:49:43;9.00;;;4.70;;
60610;SDS011;46439;51.164;13.572;2023-01-10T08:52:15;8.40;;;4.10;;
60610;SDS011;46439;51.164;13.572;2023-01-10T08:54:43;7.20;;;3.70;;
60610;SDS011;46439;51.164;13.572;2023-01-10T08:57:12;8.20;;;4.00;;
60610;SDS011;46439;51.164;13.572;2023-01-10T08:59:40;6.40;;;2.50;;
60610;SDS011;46439;51.164;13.572;2023-01-10T09:02:09;7.20;;;3.30;;
60610;SDS011;46439;51.164;13.572;2023-01-10T09:04:39;4.70;;;2.60;;
60610;SDS011;46439;51.164;13.572;2023-01-10T09:07:08;3.70;;;1.90;;
60610;SDS011;46439;51.164;13.572;2023-01-10T09:09:36;1.80;;;1.50;;
60610;SDS011;46439;51.164;13.572;2023-01-10T09:12:05;4.30;;;1.70;;
60610;SDS011;46439;51.164;13.572;2023-01-10T09:14:54;3.10;;;1.70;;
60610;SDS011;46439;51.164;13.572;2023-01-10T09:17:22;2.30;;;1.70;;
60610;SDS011;46439;51.164;13.572;2023-01-10T09:19:51;2.70;;;1.60;;
60610;SDS011;46439;51.164;13.572;2023-01-10T09:22:21;3.80;;;1.90;;
60610;SDS011;46439;51.164;13.572;2023-01-10T09:24:50;4.10;;;1.90;;
60610;SDS011;46439;51.164;13.572;2023-01-10T09:27:18;4.80;;;1.90;;
60610;SDS011;46439;51.164;13.572;2023-01-10T09:29:46;3.40;;;2.00;;
60610;SDS011;46439;51.164;13.572;2023-01-10T09:32:15;4.10;;;2.00;;
60610;SDS011;46439;51.164;13.572;2023-01-10T09:34:43;4.90;;;2.30;;
60610;SDS011;46439;51.164;13.572;2023-01-10T09:37:12;3.50;;;2.30;;
60610;SDS011;46439;51.164;13.572;2023-01-10T09:39:40;7.10;;;2.40;;
60610;SDS011;46439;51.164;13.572;2023-01-10T09:42:12;3.50;;;2.30;;
60610;SDS011;46439;51.164;13.572;2023-01-10T09:44:55;5.00;;;2.70;;
60610;SDS011;46439;51.164;13.572;2023-01-10T09:47:33;12.10;;;3.70;;
60610;SDS011;46439;51.164;13.572;2023-01-10T09:50:11;6.60;;;2.70;;
60610;SDS011;46439;51.164;13.572;2023-01-10T09:52:45;6.50;;;2.70;;
60610;SDS011;46439;51.164;13.572;2023-01-10T09:55:19;4.50;;;2.60;;
60610;SDS011;46439;51.164;13.572;2023-01-10T09:57:53;5.50;;;2.40;;
60610;SDS011;46439;51.164;13.572;2023-01-10T10:00:37;5.20;;;2.70;;
60610;SDS011;46439;51.164;13.572;2023-01-10T10:03:11;6.90;;;2.70;;
60610;SDS011;46439;51.164;13.572;2023-01-10T10:05:47;9.50;;;4.40;;
60610;SDS011;46439;51.164;13.572;2023-01-10T10:08:16;7.10;;;3.10;;
60610;SDS011;46439;51.164;13.572;2023-01-10T10:10:54;5.00;;;2.80;;
60610;SDS011;46439;51.164;13.572;2023-01-10T10:13:39;4.80;;;2.40;;
60610;SDS011;46439;51.164;13.572;2023-01-10T10:16:20;7.10;;;2.70;;
60610;SDS011;46439;51.164;13.572;2023-01-10T10:18:59;5.30;;;2.50;;
60610;SDS011;46439;51.164;13.572;2023-01-10T10:21:37;6.80;;;2.60;;
60610;SDS011;46439;51.164;13.572;2023-01-10T10:24:19;4.60;;;2.20;;
60610;SDS011;46439;51.164;13.572;2023-01-10T10:27:06;6.00;;;2.20;;
60610;SDS011;46439;51.164;13.572;2023-01-10T10:29:44;5.00;;;1.90;;
60610;SDS011;46439;51.164;13.572;2023-01-10T10:32:31;4.50;;;1.80;;
60610;SDS011;46439;51.164;13.572;2023-01-10T10:35:11;4.60;;;1.80;;
60610;SDS011;46439;51.164;13.572;2023-01-10T10:37:43;4.40;;;1.80;;
60610;SDS011;46439;51.164;13.572;2023-01-10T10:40:19;2.80;;;1.70;;
60610;SDS011;46439;51.164;13.572;2023-01-10T10:42:49;4.80;;;1.60;;
60610;SDS011;46439;51.164;13.572;2023-01-10T10:45:20;6.30;;;1.90;;
60610;SDS011;46439;51.164;13.572;2023-01-10T10:47:56;4.80;;;2.00;;
60610;SDS011;46439;51.164;13.572;2023-01-10T10:50:30;6.10;;;1.90;;
60610;SDS011;46439;51.164;13.572;2023-01-10T10:53:01;6.60;;;2.10;;
60610;SDS011;46439;51.164;13.572;2023-01-10T10:55:32;5.60;;;1.70;;
60610;SDS011;46439;51.164;13.572;2023-01-10T10:58:03;4.50;;;2.00;;
60610;SDS011;46439;51.164;13.572;2023-01-10T11:00:33;4.60;;;1.80;;
60610;SDS011;46439;51.164;13.572;2023-01-10T11:03:02;4.30;;;2.10;;
60610;SDS011;46439;51.164;13.572;2023-01-10T11:05:39;3.60;;;1.70;;
60610;SDS011;46439;51.164;13.572;2023-01-10T11:08:11;4.90;;;1.90;;
60610;SDS011;46439;51.164;13.572;2023-01-10T11:10:45;8.00;;;2.50;;
60610;SDS011;46439;51.164;13.572;2023-01-10T11:13:18;6.90;;;2.00;;
60610;SDS011;46439;51.164;13.572;2023-01-10T11:15:53;4.90;;;2.40;;
60610;SDS011;46439;51.164;13.572;2023-01-10T11:18:22;7.70;;;2.70;;
60610;SDS011;46439;51.164;13.572;2023-01-10T11:20:53;6.40;;;2.60;;
60610;SDS011;46439;51.164;13.572;2023-01-10T11:23:31;6.60;;;2.60;;
60610;SDS011;46439;51.164;13.572;2023-01-10T11:26:06;5.00;;;2.50;;
60610;SDS011;46439;51.164;13.572;2023-01-10T11:28:36;11.80;;;2.70;;
60610;SDS011;46439;51.164;13.572;2023-01-10T11:31:06;9.50;;;2.20;;
60610;SDS011;46439;51.164;13.572;2023-01-10T11:33:35;8.20;;;1.80;;
60610;SDS011;46439;51.164;13.572;2023-01-10T11:36:07;13.40;;;2.80;;
60610;SDS011;46439;51.164;13.572;2023-01-10T11:38:38;6.40;;;2.00;;
60610;SDS011;46439;51.164;13.572;2023-01-10T11:41:25;8.20;;;2.00;;
60610;SDS011;46439;51.164;13.572;2023-01-10T11:46:43;7.00;;;2.60;;
60610;SDS011;46439;51.164;13.572;2023-01-10T11:49:14;5.90;;;2.10;;
60610;SDS011;46439;51.164;13.572;2023-01-10T11:51:51;7.30;;;2.60;;
60610;SDS011;46439;51.164;13.572;2023-01-10T11:54:22;10.10;;;3.40;;
60610;SDS011;46439;51.164;13.572;2023-01-10T11:56:55;8.30;;;2.90;;
60610;SDS011;46439;51.164;13.572;2023-01-10T11:59:25;12.50;;;3.30;;
60610;SDS011;46439;51.164;13.572;2023-01-10T12:01:57;8.80;;;3.20;;
60610;SDS011;46439;51.164;13.572;2023-01-10T12:04:30;8.80;;;2.80;;
60610;SDS011;46439;51.164;13.572;2023-01-10T12:07:06;8.40;;;2.40;;
60610;SDS011;46439;51.164;13.572;2023-01-10T12:12:15;7.50;;;2.10;;
60610;SDS011;46439;51.164;13.572;2023-01-10T12:14:46;7.90;;;2.90;;
60610;SDS011;46439;51.164;13.572;2023-01-10T12:17:20;7.70;;;2.40;;
60610;SDS011;46439;51.164;13.572;2023-01-10T12:19:52;8.40;;;2.40;;
60610;SDS011;46439;51.164;13.572;2023-01-10T12:22:27;5.30;;;1.80;;
60610;SDS011;46439;51.164;13.572;2023-01-10T12:25:00;4.50;;;1.90;;
60610;SDS011;46439;51.164;13.572;2023-01-10T12:27:31;6.10;;;2.00;;
60610;SDS011;46439;51.164;13.572;2023-01-10T12:30:02;7.90;;;2.20;;
60610;SDS011;46439;51.164;13.572;2023-01-10T12:32:37;7.00;;;2.00;;
60610;SDS011;46439;51.164;13.572;2023-01-10T12:35:12;6.20;;;2.10;;
60610;SDS011;46439;51.164;13.572;2023-01-10T12:37:46;6.30;;;2.30;;
60610;SDS011;46439;51.164;13.572;2023-01-10T12:40:20;7.50;;;2.60;;
60610;SDS011;46439;51.164;13.572;2023-01-10T12:42:57;12.90;;;2.20;;
60610;SDS011;46439;51.164;13.572;2023-01-10T12:45:52;6.50;;;2.30;;
60610;SDS011;46439;51.164;13.572;2023-01-10T12:48:26;9.30;;;3.20;;
60610;SDS011;46439;51.164;13.572;2023-01-10T12:51:05;8.60;;;2.50;;
60610;SDS011;46439;51.164;13.572;2023-01-10T12:53:37;7.10;;;2.30;;
60610;SDS011;46439;51.164;13.572;2023-01-10T12:56:12;7.40;;;2.10;;
60610;SDS011;46439;51.164;13.572;2023-01-10T13:01:12;6.20;;;2.10;;
60610;SDS011;46439;51.164;13.572;2023-01-10T13:03:43;5.90;;;2.10;;
60610;SDS011;46439;51.164;13.572;2023-01-10T13:06:21;8.90;;;4.40;;
60610;SDS011;46439;51.164;13.572;2023-01-10T13:08:54;5.60;;;2.40;;
60610;SDS011;46439;51.164;13.572;2023-01-10T13:11:26;5.50;;;1.70;;
60610;SDS011;46439;51.164;13.572;2023-01-10T13:13:57;7.70;;;1.80;;
60610;SDS011;46439;51.164;13.572;2023-01-10T13:16:31;5.40;;;1.90;;
60610;SDS011;46439;51.164;13.572;2023-01-10T13:19:21;7.10;;;1.80;;
60610;SDS011;46439;51.164;13.572;2023-01-10T13:21:55;6.60;;;2.40;;
60610;SDS011;46439;51.164;13.572;2023-01-10T13:24:54;11.00;;;2.00;;
60610;SDS011;46439;51.164;13.572;2023-01-10T13:27:24;7.70;;;2.00;;
60610;SDS011;46439;51.164;13.572;2023-01-10T13:29:57;5.70;;;1.70;;
60610;SDS011;46439;51.164;13.572;2023-01-10T13:32:27;5.20;;;2.00;;
60610;SDS011;46439;51.164;13.572;2023-01-10T13:35:09;7.30;;;1.80;;
60610;SDS011;46439;51.164;13.572;2023-01-10T13:37:41;8.90;;;2.00;;
60610;SDS011;46439;51.164;13.572;2023-01-10T13:40:19;6.40;;;1.70;;
60610;SDS011;46439;51.164;13.572;2023-01-10T13:54:57;6.90;;;1.70;;
60610;SDS011;46439;51.164;13.572;2023-01-10T14:00:24;6.70;;;2.00;;
60610;SDS011;46439;51.164;13.572;2023-01-10T14:03:44;3.80;;;1.70;;
60610;SDS011;46439;51.164;13.572;2023-01-10T14:12:01;4.60;;;1.90;;
60610;SDS011;46439;51.164;13.572;2023-01-10T14:14:33;4.50;;;1.80;;
60610;SDS011;46439;51.164;13.572;2023-01-10T14:17:12;5.60;;;2.00;;
60610;SDS011;46439;51.164;13.572;2023-01-10T14:19:47;5.80;;;2.00;;
60610;SDS011;46439;51.164;13.572;2023-01-10T14:22:30;7.20;;;1.80;;
60610;SDS011;46439;51.164;13.572;2023-01-10T14:25:01;5.30;;;1.80;;
60610;SDS011;46439;51.164;13.572;2023-01-10T14:27:33;5.70;;;1.90;;
60610;SDS011;46439;51.164;13.572;2023-01-10T14:30:14;6.30;;;2.00;;
60610;SDS011;46439;51.164;13.572;2023-01-10T14:32:48;3.20;;;1.70;;
60610;SDS011;46439;51.164;13.572;2023-01-10T14:35:21;4.50;;;1.70;;
60610;SDS011;46439;51.164;13.572;2023-01-10T14:37:54;7.30;;;1.80;;
60610;SDS011;46439;51.164;13.572;2023-01-10T14:40:26;7.20;;;3.30;;
60610;SDS011;46439;51.164;13.572;2023-01-10T14:43:04;5.90;;;2.40;;
60610;SDS011;46439;51.164;13.572;2023-01-10T14:45:37;6.50;;;2.00;;
60610;SDS011;46439;51.164;13.572;2023-01-10T14:48:27;5.60;;;2.20;;
60610;SDS011;46439;51.164;13.572;2023-01-10T14:51:07;7.10;;;2.50;;
60610;SDS011;46439;51.164;13.572;2023-01-10T14:53:52;6.00;;;2.40;;
60610;SDS011;46439;51.164;13.572;2023-01-10T14:56:23;6.80;;;2.30;;
60610;SDS011;46439;51.164;13.572;2023-01-10T14:58:53;7.10;;;2.10;;
60610;SDS011;46439;51.164;13.572;2023-01-10T15:01:23;3.90;;;1.80;;
60610;SDS011;46439;51.164;13.572;2023-01-10T15:03:53;4.20;;;1.80;;
60610;SDS011;46439;51.164;13.572;2023-01-10T15:06:23;6.30;;;1.60;;
60610;SDS011;46439;51.164;13.572;2023-01-10T15:08:59;5.40;;;1.70;;
60610;SDS011;46439;51.164;13.572;2023-01-10T15:11:29;5.20;;;1.90;;
60610;SDS011;46439;51.164;13.572;2023-01-10T15:14:00;6.20;;;1.70;;
60610;SDS011;46439;51.164;13.572;2023-01-10T15:16:33;6.90;;;2.00;;
60610;SDS011;46439;51.164;13.572;2023-01-10T15:19:02;4.40;;;2.00;;
60610;SDS011;46439;51.164;13.572;2023-01-10T15:21:32;7.00;;;2.20;;
60610;SDS011;46439;51.164;13.572;2023-01-10T15:24:19;3.90;;;1.90;;
60610;SDS011;46439;51.164;13.572;2023-01-10T15:26:54;4.80;;;2.00;;
60610;SDS011;46439;51.164;13.572;2023-01-10T15:29:26;6.60;;;1.70;;
60610;SDS011;46439;51.164;13.572;2023-01-10T15:31:56;4.60;;;1.70;;
60610;SDS011;46439;51.164;13.572;2023-01-10T15:34:33;5.80;;;2.00;;
60610;SDS011;46439;51.164;13.572;2023-01-10T15:37:03;5.90;;;2.20;;
60610;SDS011;46439;51.164;13.572;2023-01-10T15:39:34;4.70;;;2.00;;
60610;SDS011;46439;51.164;13.572;2023-01-10T15:42:06;5.80;;;2.10;;
60610;SDS011;46439;51.164;13.572;2023-01-10T15:44:37;4.10;;;2.30;;
60610;SDS011;46439;51.164;13.572;2023-01-10T15:50:20;5.40;;;2.40;;
60610;SDS011;46439;51.164;13.572;2023-01-10T15:52:53;6.20;;;2.40;;
60610;SDS011;46439;51.164;13.572;2023-01-10T15:55:38;7.80;;;2.20;;
60610;SDS011;46439;51.164;13.572;2023-01-10T15:58:15;6.80;;;2.30;;
60610;SDS011;46439;51.164;13.572;2023-01-10T16:00:48;4.20;;;2.10;;
60610;SDS011;46439;51.164;13.572;2023-01-10T16:03:21;8.90;;;2.60;;
60610;SDS011;46439;51.164;13.572;2023-01-10T16:05:54;6.40;;;2.50;;
60610;SDS011;46439;51.164;13.572;2023-01-10T16:08:25;7.80;;;3.20;;
60610;SDS011;46439;51.164;13.572;2023-01-10T16:10:57;4.70;;;2.40;;
60610;SDS011;46439;51.164;13.572;2023-01-10T16:13:27;6.10;;;3.20;;
60610;SDS011;46439;51.164;13.572;2023-01-10T16:16:00;5.80;;;2.90;;
60610;SDS011;46439;51.164;13.572;2023-01-10T16:18:33;5.60;;;3.10;;
60610;SDS011;46439;51.164;13.572;2023-01-10T16:21:02;4.60;;;2.70;;
60610;SDS011;46439;51.164;13.572;2023-01-10T16:23:36;7.40;;;2.50;;
60610;SDS011;46439;51.164;13.572;2023-01-10T16:26:09;8.40;;;3.00;;
60610;SDS011;46439;51.164;13.572;2023-01-10T16:28:38;6.30;;;2.50;;
60610;SDS011;46439;51.164;13.572;2023-01-10T16:31:08;6.00;;;2.60;;
60610;SDS011;46439;51.164;13.572;2023-01-10T16:33:37;5.30;;;2.50;;